sensor_id;sensor_type;location;lat;lon;timestamp;P1;durP1;ratioP1;P2;durP2;ratioP2
24102;SDS011;12278;53.058;9.028;2023-08-31T00:03:19;6.00;;;4.80;;
24102;SDS011;12278;53.058;9.028;2023-08-31T00:07:21;6.32;;;4.00;;
24102;SDS011;12278;53.058;9.028;2023-08-31T00:11:21;5.63;;;4.05;;
24102;SDS011;12278;53.058;9.028;2023-08-31T00:15:23;7.90;;;3.80;;
24102;SDS011;12278;53.058;9.028;2023-08-31T00:19:24;4.70;;;3.72;;
24102;SDS011;12278;53.058;9.028;2023-08-31T00:23:24;4.15;;;3.22;;
24102;SDS011;12278;53.058;9.028;2023-08-31T00:27:25;4.78;;;4.20;;
24102;SDS011;12278;53.058;9.028;2023-08-31T00:31:26;5.57;;;4.05;;
24102;SDS011;12278;53.058;9.028;2023-08-31T00:35:27;5.43;;;3.58;;
24102;SDS011;12278;53.058;9.028;2023-08-31T00:39:28;5.57;;;3.42;;
24102;SDS011;12278;53.058;9.028;2023-08-31T00:43:29;4.25;;;3.65;;
24102;SDS011;12278;53.058;9.028;2023-08-31T00:47:29;4.25;;;3.85;;
24102;SDS011;12278;53.058;9.028;2023-08-31T00:51:30;4.88;;;3.58;;
24102;SDS011;12278;53.058;9.028;2023-08-31T00:59:32;4.80;;;3.53;;
24102;SDS011;12278;53.058;9.028;2023-08-31T01:12:50;5.50;;;3.13;;
24102;SDS011;12278;53.058;9.028;2023-08-31T01:17:03;5.45;;;3.33;;
24102;SDS011;12278;53.058;9.028;2023-08-31T01:21:27;3.38;;;3.08;;
24102;SDS011;12278;53.058;9.028;2023-08-31T01:25:34;3.25;;;2.95;;
24102;SDS011;12278;53.058;9.028;2023-08-31T01:29:36;5.97;;;3.28;;
24102;SDS011;12278;53.058;9.028;2023-08-31T01:33:37;2.97;;;2.65;;
24102;SDS011;12278;53.058;9.028;2023-08-31T01:41:55;4.63;;;3.63;;
24102;SDS011;12278;53.058;9.028;2023-08-31T01:45:58;4.30;;;2.80;;
24102;SDS011;12278;53.058;9.028;2023-08-31T01:49:58;4.20;;;3.00;;
24102;SDS011;12278;53.058;9.028;2023-08-31T01:53:59;4.80;;;3.17;;
24102;SDS011;12278;53.058;9.028;2023-08-31T01:58:00;8.65;;;3.70;;
24102;SDS011;12278;53.058;9.028;2023-08-31T02:02:01;5.18;;;3.05;;
24102;SDS011;12278;53.058;9.028;2023-08-31T02:06:02;3.83;;;2.88;;
24102;SDS011;12278;53.058;9.028;2023-08-31T02:10:04;6.22;;;3.40;;
24102;SDS011;12278;53.058;9.028;2023-08-31T02:14:06;4.75;;;3.40;;
24102;SDS011;12278;53.058;9.028;2023-08-31T02:18:07;6.20;;;3.88;;
24102;SDS011;12278;53.058;9.028;2023-08-31T02:22:08;6.32;;;3.92;;
24102;SDS011;12278;53.058;9.028;2023-08-31T02:26:10;3.63;;;3.15;;
24102;SDS011;12278;53.058;9.028;2023-08-31T02:30:11;5.00;;;3.95;;
24102;SDS011;12278;53.058;9.028;2023-08-31T02:34:12;7.05;;;3.67;;
24102;SDS011;12278;53.058;9.028;2023-08-31T02:38:13;7.57;;;3.47;;
24102;SDS011;12278;53.058;9.028;2023-08-31T02:42:13;4.78;;;3.50;;
24102;SDS011;12278;53.058;9.028;2023-08-31T02:46:14;6.45;;;3.92;;
24102;SDS011;12278;53.058;9.028;2023-08-31T02:50:15;5.20;;;4.15;;
24102;SDS011;12278;53.058;9.028;2023-08-31T02:54:16;6.10;;;3.83;;
24102;SDS011;12278;53.058;9.028;2023-08-31T02:58:17;5.63;;;3.72;;
24102;SDS011;12278;53.058;9.028;2023-08-31T03:02:17;7.00;;;3.97;;
24102;SDS011;12278;53.058;9.028;2023-08-31T03:06:18;5.68;;;4.13;;
24102;SDS011;12278;53.058;9.028;2023-08-31T03:10:20;3.67;;;3.25;;
24102;SDS011;12278;53.058;9.028;2023-08-31T03:14:22;5.35;;;3.70;;
24102;SDS011;12278;53.058;9.028;2023-08-31T03:18:23;6.07;;;4.18;;
24102;SDS011;12278;53.058;9.028;2023-08-31T03:22:23;4.20;;;3.80;;
24102;SDS011;12278;53.058;9.028;2023-08-31T03:26:24;5.13;;;3.90;;
24102;SDS011;12278;53.058;9.028;2023-08-31T03:30:25;6.18;;;4.22;;
24102;SDS011;12278;53.058;9.028;2023-08-31T03:34:28;7.13;;;4.55;;
24102;SDS011;12278;53.058;9.028;2023-08-31T03:38:33;5.05;;;3.65;;
24102;SDS011;12278;53.058;9.028;2023-08-31T03:42:40;5.57;;;4.25;;
24102;SDS011;12278;53.058;9.028;2023-08-31T03:46:41;5.53;;;3.78;;
24102;SDS011;12278;53.058;9.028;2023-08-31T03:50:42;8.57;;;4.47;;
24102;SDS011;12278;53.058;9.028;2023-08-31T03:54:43;5.75;;;4.10;;
24102;SDS011;12278;53.058;9.028;2023-08-31T03:58:43;6.43;;;4.25;;
24102;SDS011;12278;53.058;9.028;2023-08-31T04:02:44;9.15;;;4.43;;
24102;SDS011;12278;53.058;9.028;2023-08-31T04:06:45;5.10;;;4.03;;
24102;SDS011;12278;53.058;9.028;2023-08-31T04:10:45;7.53;;;4.60;;
24102;SDS011;12278;53.058;9.028;2023-08-31T04:14:46;6.63;;;4.20;;
24102;SDS011;12278;53.058;9.028;2023-08-31T04:18:46;4.75;;;4.32;;
24102;SDS011;12278;53.058;9.028;2023-08-31T04:22:51;8.20;;;5.10;;
24102;SDS011;12278;53.058;9.028;2023-08-31T04:26:51;6.40;;;4.60;;
24102;SDS011;12278;53.058;9.028;2023-08-31T04:30:52;7.55;;;4.25;;
24102;SDS011;12278;53.058;9.028;2023-08-31T04:34:53;6.38;;;4.60;;
24102;SDS011;12278;53.058;9.028;2023-08-31T04:38:55;7.82;;;4.95;;
24102;SDS011;12278;53.058;9.028;2023-08-31T04:42:55;6.88;;;5.05;;
24102;SDS011;12278;53.058;9.028;2023-08-31T04:46:56;6.72;;;5.20;;
24102;SDS011;12278;53.058;9.028;2023-08-31T04:50:57;7.72;;;5.22;;
24102;SDS011;12278;53.058;9.028;2023-08-31T04:54:57;6.47;;;5.03;;
24102;SDS011;12278;53.058;9.028;2023-08-31T04:59:00;7.97;;;4.97;;
24102;SDS011;12278;53.058;9.028;2023-08-31T05:03:01;7.55;;;5.28;;
24102;SDS011;12278;53.058;9.028;2023-08-31T05:07:02;6.07;;;5.22;;
24102;SDS011;12278;53.058;9.028;2023-08-31T05:11:03;7.35;;;5.70;;
24102;SDS011;12278;53.058;9.028;2023-08-31T05:15:04;5.82;;;5.07;;
24102;SDS011;12278;53.058;9.028;2023-08-31T05:19:05;9.82;;;5.82;;
24102;SDS011;12278;53.058;9.028;2023-08-31T05:23:06;6.88;;;5.25;;
24102;SDS011;12278;53.058;9.028;2023-08-31T05:27:07;9.00;;;5.00;;
24102;SDS011;12278;53.058;9.028;2023-08-31T05:31:07;10.73;;;5.72;;
24102;SDS011;12278;53.058;9.028;2023-08-31T05:35:08;12.45;;;5.90;;
24102;SDS011;12278;53.058;9.028;2023-08-31T05:39:08;7.28;;;5.53;;
24102;SDS011;12278;53.058;9.028;2023-08-31T05:43:09;8.13;;;5.43;;
24102;SDS011;12278;53.058;9.028;2023-08-31T05:47:10;9.40;;;6.43;;
24102;SDS011;12278;53.058;9.028;2023-08-31T05:51:11;7.82;;;5.72;;
24102;SDS011;12278;53.058;9.028;2023-08-31T05:55:11;8.38;;;6.25;;
24102;SDS011;12278;53.058;9.028;2023-08-31T05:59:12;8.88;;;6.18;;
24102;SDS011;12278;53.058;9.028;2023-08-31T06:03:12;9.70;;;6.30;;
24102;SDS011;12278;53.058;9.028;2023-08-31T06:07:13;8.98;;;6.28;;
24102;SDS011;12278;53.058;9.028;2023-08-31T06:11:14;9.40;;;6.28;;
24102;SDS011;12278;53.058;9.028;2023-08-31T06:15:15;8.20;;;6.32;;
24102;SDS011;12278;53.058;9.028;2023-08-31T06:19:16;10.00;;;6.85;;
24102;SDS011;12278;53.058;9.028;2023-08-31T06:23:17;7.38;;;6.32;;
24102;SDS011;12278;53.058;9.028;2023-08-31T06:27:18;11.77;;;7.25;;
24102;SDS011;12278;53.058;9.028;2023-08-31T06:31:18;14.20;;;6.65;;
24102;SDS011;12278;53.058;9.028;2023-08-31T06:35:19;11.07;;;6.43;;
24102;SDS011;12278;53.058;9.028;2023-08-31T06:39:20;7.65;;;6.10;;
24102;SDS011;12278;53.058;9.028;2023-08-31T06:43:20;7.07;;;5.80;;
24102;SDS011;12278;53.058;9.028;2023-08-31T06:47:21;9.75;;;6.63;;
24102;SDS011;12278;53.058;9.028;2023-08-31T06:51:21;7.32;;;5.80;;
24102;SDS011;12278;53.058;9.028;2023-08-31T06:55:22;10.40;;;6.57;;
24102;SDS011;12278;53.058;9.028;2023-08-31T06:59:23;7.45;;;6.63;;
24102;SDS011;12278;53.058;9.028;2023-08-31T07:03:24;10.65;;;6.47;;
24102;SDS011;12278;53.058;9.028;2023-08-31T07:07:25;11.73;;;6.88;;
24102;SDS011;12278;53.058;9.028;2023-08-31T07:11:25;9.13;;;5.78;;
24102;SDS011;12278;53.058;9.028;2023-08-31T07:15:27;7.50;;;6.20;;
24102;SDS011;12278;53.058;9.028;2023-08-31T07:19:28;7.03;;;5.90;;
24102;SDS011;12278;53.058;9.028;2023-08-31T07:23:28;8.43;;;6.05;;
24102;SDS011;12278;53.058;9.028;2023-08-31T07:27:29;8.38;;;6.60;;
24102;SDS011;12278;53.058;9.028;2023-08-31T07:31:30;12.02;;;7.78;;
24102;SDS011;12278;53.058;9.028;2023-08-31T07:35:32;8.05;;;6.78;;
24102;SDS011;12278;53.058;9.028;2023-08-31T07:39:32;10.77;;;8.35;;
24102;SDS011;12278;53.058;9.028;2023-08-31T07:43:33;11.52;;;7.97;;
24102;SDS011;12278;53.058;9.028;2023-08-31T07:47:34;9.65;;;7.93;;
24102;SDS011;12278;53.058;9.028;2023-08-31T07:51:34;9.48;;;7.57;;
24102;SDS011;12278;53.058;9.028;2023-08-31T07:55:35;9.25;;;8.13;;
24102;SDS011;12278;53.058;9.028;2023-08-31T07:59:36;12.55;;;8.57;;
24102;SDS011;12278;53.058;9.028;2023-08-31T08:03:39;9.10;;;8.02;;
24102;SDS011;12278;53.058;9.028;2023-08-31T08:07:40;9.40;;;8.40;;
24102;SDS011;12278;53.058;9.028;2023-08-31T08:11:42;10.20;;;8.00;;
24102;SDS011;12278;53.058;9.028;2023-08-31T08:15:42;8.75;;;7.85;;
24102;SDS011;12278;53.058;9.028;2023-08-31T08:19:44;9.45;;;7.65;;
24102;SDS011;12278;53.058;9.028;2023-08-31T08:23:45;9.23;;;8.30;;
24102;SDS011;12278;53.058;9.028;2023-08-31T08:27:46;9.60;;;8.43;;
24102;SDS011;12278;53.058;9.028;2023-08-31T08:31:47;9.48;;;8.57;;
24102;SDS011;12278;53.058;9.028;2023-08-31T08:35:48;11.93;;;8.70;;
24102;SDS011;12278;53.058;9.028;2023-08-31T08:39:49;10.43;;;9.43;;
24102;SDS011;12278;53.058;9.028;2023-08-31T08:43:50;11.65;;;9.15;;
24102;SDS011;12278;53.058;9.028;2023-08-31T08:47:51;10.68;;;8.80;;
24102;SDS011;12278;53.058;9.028;2023-08-31T08:51:52;12.10;;;9.88;;
24102;SDS011;12278;53.058;9.028;2023-08-31T08:55:53;10.98;;;9.23;;
24102;SDS011;12278;53.058;9.028;2023-08-31T08:59:54;10.65;;;8.93;;
24102;SDS011;12278;53.058;9.028;2023-08-31T09:03:55;13.70;;;8.48;;
24102;SDS011;12278;53.058;9.028;2023-08-31T09:08:08;9.57;;;8.57;;
24102;SDS011;12278;53.058;9.028;2023-08-31T09:12:13;12.30;;;9.30;;
24102;SDS011;12278;53.058;9.028;2023-08-31T09:16:24;11.38;;;10.25;;
24102;SDS011;12278;53.058;9.028;2023-08-31T09:20:26;11.05;;;8.80;;
24102;SDS011;12278;53.058;9.028;2023-08-31T09:24:27;13.15;;;9.23;;
24102;SDS011;12278;53.058;9.028;2023-08-31T09:28:27;11.52;;;8.82;;
24102;SDS011;12278;53.058;9.028;2023-08-31T09:32:29;12.57;;;8.93;;
24102;SDS011;12278;53.058;9.028;2023-08-31T09:36:29;10.07;;;9.05;;
24102;SDS011;12278;53.058;9.028;2023-08-31T09:40:31;11.70;;;8.37;;
24102;SDS011;12278;53.058;9.028;2023-08-31T09:44:31;7.93;;;7.23;;
24102;SDS011;12278;53.058;9.028;2023-08-31T09:48:32;10.70;;;8.32;;
24102;SDS011;12278;53.058;9.028;2023-08-31T09:52:33;13.00;;;8.30;;
24102;SDS011;12278;53.058;9.028;2023-08-31T09:56:35;8.77;;;7.87;;
24102;SDS011;12278;53.058;9.028;2023-08-31T10:00:37;7.15;;;6.22;;
24102;SDS011;12278;53.058;9.028;2023-08-31T10:04:38;9.15;;;6.00;;
24102;SDS011;12278;53.058;9.028;2023-08-31T10:08:39;5.95;;;4.75;;
24102;SDS011;12278;53.058;9.028;2023-08-31T10:12:41;5.97;;;5.38;;
24102;SDS011;12278;53.058;9.028;2023-08-31T10:16:45;5.25;;;3.55;;
24102;SDS011;12278;53.058;9.028;2023-08-31T10:20:46;3.53;;;2.88;;
24102;SDS011;12278;53.058;9.028;2023-08-31T10:25:00;3.70;;;2.70;;
24102;SDS011;12278;53.058;9.028;2023-08-31T10:29:03;2.65;;;2.42;;
24102;SDS011;12278;53.058;9.028;2023-08-31T10:37:19;2.72;;;1.42;;
24102;SDS011;12278;53.058;9.028;2023-08-31T10:41:21;2.42;;;1.48;;
24102;SDS011;12278;53.058;9.028;2023-08-31T10:45:22;2.23;;;1.33;;
24102;SDS011;12278;53.058;9.028;2023-08-31T10:49:23;3.38;;;1.48;;
24102;SDS011;12278;53.058;9.028;2023-08-31T10:53:28;3.90;;;1.40;;
24102;SDS011;12278;53.058;9.028;2023-08-31T10:57:29;1.25;;;1.15;;
24102;SDS011;12278;53.058;9.028;2023-08-31T11:05:55;2.10;;;1.67;;
24102;SDS011;12278;53.058;9.028;2023-08-31T11:10:12;1.05;;;0.98;;
24102;SDS011;12278;53.058;9.028;2023-08-31T11:14:14;1.60;;;0.93;;
24102;SDS011;12278;53.058;9.028;2023-08-31T11:18:16;2.63;;;1.00;;
24102;SDS011;12278;53.058;9.028;2023-08-31T11:22:20;2.17;;;0.85;;
24102;SDS011;12278;53.058;9.028;2023-08-31T11:26:21;1.42;;;0.90;;
24102;SDS011;12278;53.058;9.028;2023-08-31T11:30:21;2.95;;;0.88;;
24102;SDS011;12278;53.058;9.028;2023-08-31T11:34:22;1.58;;;1.00;;
24102;SDS011;12278;53.058;9.028;2023-08-31T11:38:23;1.65;;;0.85;;
24102;SDS011;12278;53.058;9.028;2023-08-31T11:42:24;3.50;;;1.10;;
24102;SDS011;12278;53.058;9.028;2023-08-31T11:46:25;3.30;;;1.20;;
24102;SDS011;12278;53.058;9.028;2023-08-31T11:50:26;1.35;;;0.77;;
24102;SDS011;12278;53.058;9.028;2023-08-31T11:54:27;2.50;;;0.80;;
24102;SDS011;12278;53.058;9.028;2023-08-31T11:58:29;2.00;;;0.80;;
24102;SDS011;12278;53.058;9.028;2023-08-31T12:02:34;2.17;;;0.82;;
24102;SDS011;12278;53.058;9.028;2023-08-31T12:06:35;0.98;;;0.80;;
24102;SDS011;12278;53.058;9.028;2023-08-31T12:10:39;2.35;;;0.95;;
24102;SDS011;12278;53.058;9.028;2023-08-31T12:14:42;3.28;;;1.13;;
24102;SDS011;12278;53.058;9.028;2023-08-31T12:18:43;2.90;;;1.00;;
24102;SDS011;12278;53.058;9.028;2023-08-31T12:22:45;1.40;;;1.02;;
24102;SDS011;12278;53.058;9.028;2023-08-31T12:26:46;1.80;;;1.02;;
24102;SDS011;12278;53.058;9.028;2023-08-31T12:30:47;1.58;;;1.02;;
24102;SDS011;12278;53.058;9.028;2023-08-31T12:34:52;1.58;;;1.02;;
24102;SDS011;12278;53.058;9.028;2023-08-31T12:38:53;1.50;;;0.82;;
24102;SDS011;12278;53.058;9.028;2023-08-31T12:42:53;2.45;;;1.13;;
24102;SDS011;12278;53.058;9.028;2023-08-31T12:46:54;3.42;;;1.25;;
24102;SDS011;12278;53.058;9.028;2023-08-31T12:50:55;3.17;;;1.08;;
24102;SDS011;12278;53.058;9.028;2023-08-31T12:54:55;0.98;;;0.98;;
24102;SDS011;12278;53.058;9.028;2023-08-31T12:58:56;1.60;;;0.50;;
24102;SDS011;12278;53.058;9.028;2023-08-31T13:02:56;1.63;;;1.05;;
24102;SDS011;12278;53.058;9.028;2023-08-31T13:06:57;1.60;;;1.10;;
24102;SDS011;12278;53.058;9.028;2023-08-31T13:10:58;3.05;;;1.52;;
24102;SDS011;12278;53.058;9.028;2023-08-31T13:14:59;4.20;;;0.95;;
24102;SDS011;12278;53.058;9.028;2023-08-31T13:19:00;1.95;;;1.05;;
24102;SDS011;12278;53.058;9.028;2023-08-31T13:23:00;1.75;;;1.25;;
24102;SDS011;12278;53.058;9.028;2023-08-31T13:27:01;1.75;;;1.00;;
24102;SDS011;12278;53.058;9.028;2023-08-31T13:31:02;1.95;;;0.93;;
24102;SDS011;12278;53.058;9.028;2023-08-31T13:35:03;1.83;;;1.02;;
24102;SDS011;12278;53.058;9.028;2023-08-31T13:39:07;1.15;;;1.05;;
24102;SDS011;12278;53.058;9.028;2023-08-31T13:43:08;0.70;;;0.60;;
24102;SDS011;12278;53.058;9.028;2023-08-31T13:47:08;1.10;;;0.73;;
24102;SDS011;12278;53.058;9.028;2023-08-31T13:51:09;2.10;;;1.00;;
24102;SDS011;12278;53.058;9.028;2023-08-31T13:55:10;1.02;;;0.70;;
24102;SDS011;12278;53.058;9.028;2023-08-31T13:59:10;2.67;;;0.90;;
24102;SDS011;12278;53.058;9.028;2023-08-31T14:03:11;2.70;;;0.65;;
24102;SDS011;12278;53.058;9.028;2023-08-31T14:07:12;1.98;;;1.00;;
24102;SDS011;12278;53.058;9.028;2023-08-31T14:11:13;1.98;;;0.85;;
24102;SDS011;12278;53.058;9.028;2023-08-31T14:15:14;2.47;;;1.02;;
24102;SDS011;12278;53.058;9.028;2023-08-31T14:19:15;1.33;;;0.85;;
24102;SDS011;12278;53.058;9.028;2023-08-31T14:23:15;1.73;;;1.05;;
24102;SDS011;12278;53.058;9.028;2023-08-31T14:27:16;2.72;;;0.90;;
24102;SDS011;12278;53.058;9.028;2023-08-31T14:31:17;1.20;;;1.10;;
24102;SDS011;12278;53.058;9.028;2023-08-31T14:35:18;1.70;;;1.30;;
24102;SDS011;12278;53.058;9.028;2023-08-31T14:39:19;3.25;;;1.25;;
24102;SDS011;12278;53.058;9.028;2023-08-31T14:43:19;1.75;;;1.10;;
24102;SDS011;12278;53.058;9.028;2023-08-31T14:47:20;1.48;;;1.38;;
24102;SDS011;12278;53.058;9.028;2023-08-31T14:51:21;3.55;;;1.25;;
24102;SDS011;12278;53.058;9.028;2023-08-31T14:55:21;2.63;;;1.13;;
24102;SDS011;12278;53.058;9.028;2023-08-31T14:59:22;1.20;;;0.90;;
24102;SDS011;12278;53.058;9.028;2023-08-31T15:03:23;3.17;;;0.98;;
24102;SDS011;12278;53.058;9.028;2023-08-31T15:07:24;1.27;;;0.60;;
24102;SDS011;12278;53.058;9.028;2023-08-31T15:11:26;0.55;;;0.40;;
24102;SDS011;12278;53.058;9.028;2023-08-31T15:15:28;0.63;;;0.63;;
24102;SDS011;12278;53.058;9.028;2023-08-31T15:19:30;0.90;;;0.60;;
24102;SDS011;12278;53.058;9.028;2023-08-31T15:23:32;0.70;;;0.70;;
24102;SDS011;12278;53.058;9.028;2023-08-31T15:27:32;0.77;;;0.28;;
24102;SDS011;12278;53.058;9.028;2023-08-31T15:31:33;1.38;;;0.38;;
24102;SDS011;12278;53.058;9.028;2023-08-31T15:35:34;0.47;;;0.30;;
24102;SDS011;12278;53.058;9.028;2023-08-31T15:39:34;0.40;;;0.40;;
24102;SDS011;12278;53.058;9.028;2023-08-31T15:43:35;0.32;;;0.32;;
24102;SDS011;12278;53.058;9.028;2023-08-31T15:47:38;0.55;;;0.32;;
24102;SDS011;12278;53.058;9.028;2023-08-31T15:51:39;1.85;;;0.63;;
24102;SDS011;12278;53.058;9.028;2023-08-31T15:55:40;1.05;;;0.93;;
24102;SDS011;12278;53.058;9.028;2023-08-31T15:59:41;2.33;;;0.68;;
24102;SDS011;12278;53.058;9.028;2023-08-31T16:03:42;1.13;;;0.90;;
24102;SDS011;12278;53.058;9.028;2023-08-31T16:07:42;0.63;;;0.55;;
24102;SDS011;12278;53.058;9.028;2023-08-31T16:11:44;1.50;;;0.65;;
24102;SDS011;12278;53.058;9.028;2023-08-31T16:15:45;1.70;;;0.60;;
24102;SDS011;12278;53.058;9.028;2023-08-31T16:19:49;2.47;;;1.20;;
24102;SDS011;12278;53.058;9.028;2023-08-31T16:23:50;2.25;;;0.85;;
24102;SDS011;12278;53.058;9.028;2023-08-31T16:27:50;0.90;;;0.68;;
24102;SDS011;12278;53.058;9.028;2023-08-31T16:31:51;1.63;;;1.45;;
24102;SDS011;12278;53.058;9.028;2023-08-31T16:35:58;1.85;;;0.90;;
24102;SDS011;12278;53.058;9.028;2023-08-31T16:39:59;1.05;;;0.90;;
24102;SDS011;12278;53.058;9.028;2023-08-31T16:44:00;1.70;;;1.45;;
24102;SDS011;12278;53.058;9.028;2023-08-31T16:48:01;2.55;;;1.60;;
24102;SDS011;12278;53.058;9.028;2023-08-31T16:52:02;1.10;;;1.05;;
24102;SDS011;12278;53.058;9.028;2023-08-31T16:56:04;1.38;;;1.20;;
24102;SDS011;12278;53.058;9.028;2023-08-31T17:00:06;1.30;;;1.20;;
24102;SDS011;12278;53.058;9.028;2023-08-31T17:04:09;2.05;;;1.10;;
24102;SDS011;12278;53.058;9.028;2023-08-31T17:08:10;2.30;;;1.08;;
24102;SDS011;12278;53.058;9.028;2023-08-31T17:12:11;1.52;;;1.17;;
24102;SDS011;12278;53.058;9.028;2023-08-31T17:16:12;2.67;;;1.20;;
24102;SDS011;12278;53.058;9.028;2023-08-31T17:20:12;2.38;;;1.50;;
24102;SDS011;12278;53.058;9.028;2023-08-31T17:24:16;2.70;;;1.10;;
24102;SDS011;12278;53.058;9.028;2023-08-31T17:28:17;4.68;;;1.80;;
24102;SDS011;12278;53.058;9.028;2023-08-31T17:32:17;1.85;;;1.15;;
24102;SDS011;12278;53.058;9.028;2023-08-31T17:36:18;2.42;;;1.10;;
24102;SDS011;12278;53.058;9.028;2023-08-31T17:40:19;1.60;;;1.50;;
24102;SDS011;12278;53.058;9.028;2023-08-31T17:44:19;3.42;;;1.73;;
24102;SDS011;12278;53.058;9.028;2023-08-31T17:48:24;2.65;;;1.38;;
24102;SDS011;12278;53.058;9.028;2023-08-31T17:52:26;2.42;;;1.13;;
24102;SDS011;12278;53.058;9.028;2023-08-31T17:56:27;3.00;;;1.50;;
24102;SDS011;12278;53.058;9.028;2023-08-31T18:00:28;1.73;;;1.23;;
24102;SDS011;12278;53.058;9.028;2023-08-31T18:04:28;1.70;;;1.60;;
24102;SDS011;12278;53.058;9.028;2023-08-31T18:08:30;2.53;;;1.30;;
24102;SDS011;12278;53.058;9.028;2023-08-31T18:12:32;1.27;;;1.17;;
24102;SDS011;12278;53.058;9.028;2023-08-31T18:16:34;2.78;;;1.30;;
24102;SDS011;12278;53.058;9.028;2023-08-31T18:20:36;2.55;;;1.45;;
24102;SDS011;12278;53.058;9.028;2023-08-31T18:24:36;4.93;;;2.03;;
24102;SDS011;12278;53.058;9.028;2023-08-31T18:28:37;5.55;;;1.85;;
24102;SDS011;12278;53.058;9.028;2023-08-31T18:32:37;3.33;;;1.83;;
24102;SDS011;12278;53.058;9.028;2023-08-31T18:36:40;4.38;;;1.98;;
24102;SDS011;12278;53.058;9.028;2023-08-31T18:40:41;2.80;;;1.60;;
24102;SDS011;12278;53.058;9.028;2023-08-31T18:44:42;2.58;;;1.58;;
24102;SDS011;12278;53.058;9.028;2023-08-31T18:48:42;2.92;;;2.08;;
24102;SDS011;12278;53.058;9.028;2023-08-31T18:52:43;3.50;;;1.52;;
24102;SDS011;12278;53.058;9.028;2023-08-31T18:56:44;1.30;;;1.15;;
24102;SDS011;12278;53.058;9.028;2023-08-31T19:00:44;3.60;;;1.92;;
24102;SDS011;12278;53.058;9.028;2023-08-31T19:04:45;2.80;;;1.95;;
24102;SDS011;12278;53.058;9.028;2023-08-31T19:08:51;2.05;;;1.63;;
24102;SDS011;12278;53.058;9.028;2023-08-31T19:12:52;2.35;;;1.35;;
24102;SDS011;12278;53.058;9.028;2023-08-31T19:16:53;3.97;;;1.70;;
24102;SDS011;12278;53.058;9.028;2023-08-31T19:20:58;3.15;;;1.95;;
24102;SDS011;12278;53.058;9.028;2023-08-31T19:25:01;2.03;;;1.77;;
24102;SDS011;12278;53.058;9.028;2023-08-31T19:29:02;2.20;;;1.38;;
24102;SDS011;12278;53.058;9.028;2023-08-31T19:33:03;2.17;;;1.70;;
24102;SDS011;12278;53.058;9.028;2023-08-31T19:37:04;1.88;;;1.73;;
24102;SDS011;12278;53.058;9.028;2023-08-31T19:41:05;1.95;;;1.85;;
24102;SDS011;12278;53.058;9.028;2023-08-31T19:45:06;2.17;;;1.58;;
24102;SDS011;12278;53.058;9.028;2023-08-31T19:49:07;3.28;;;1.55;;
24102;SDS011;12278;53.058;9.028;2023-08-31T19:53:07;1.73;;;1.48;;
24102;SDS011;12278;53.058;9.028;2023-08-31T19:57:08;2.20;;;1.58;;
24102;SDS011;12278;53.058;9.028;2023-08-31T20:01:09;2.90;;;2.30;;
24102;SDS011;12278;53.058;9.028;2023-08-31T20:05:10;2.22;;;1.85;;
24102;SDS011;12278;53.058;9.028;2023-08-31T20:09:10;2.45;;;1.63;;
24102;SDS011;12278;53.058;9.028;2023-08-31T20:13:11;3.17;;;2.30;;
24102;SDS011;12278;53.058;9.028;2023-08-31T20:17:12;5.68;;;2.10;;
24102;SDS011;12278;53.058;9.028;2023-08-31T20:21:12;1.88;;;1.73;;
24102;SDS011;12278;53.058;9.028;2023-08-31T20:25:15;3.45;;;1.83;;
24102;SDS011;12278;53.058;9.028;2023-08-31T20:29:18;2.47;;;1.35;;
24102;SDS011;12278;53.058;9.028;2023-08-31T20:33:20;3.58;;;1.30;;
24102;SDS011;12278;53.058;9.028;2023-08-31T20:37:20;1.65;;;1.55;;
24102;SDS011;12278;53.058;9.028;2023-08-31T20:41:23;3.10;;;1.52;;
24102;SDS011;12278;53.058;9.028;2023-08-31T20:45:24;3.63;;;1.63;;
24102;SDS011;12278;53.058;9.028;2023-08-31T20:49:26;2.72;;;1.70;;
24102;SDS011;12278;53.058;9.028;2023-08-31T20:53:26;2.80;;;1.40;;
24102;SDS011;12278;53.058;9.028;2023-08-31T20:57:27;2.70;;;1.80;;
24102;SDS011;12278;53.058;9.028;2023-08-31T21:01:28;4.05;;;2.13;;
24102;SDS011;12278;53.058;9.028;2023-08-31T21:05:28;2.50;;;1.80;;
24102;SDS011;12278;53.058;9.028;2023-08-31T21:09:29;2.10;;;1.90;;
24102;SDS011;12278;53.058;9.028;2023-08-31T21:13:30;1.63;;;1.52;;
24102;SDS011;12278;53.058;9.028;2023-08-31T21:17:36;2.58;;;1.75;;
24102;SDS011;12278;53.058;9.028;2023-08-31T21:21:37;2.40;;;1.83;;
24102;SDS011;12278;53.058;9.028;2023-08-31T21:25:38;8.75;;;3.08;;
24102;SDS011;12278;53.058;9.028;2023-08-31T21:29:40;3.00;;;1.83;;
24102;SDS011;12278;53.058;9.028;2023-08-31T21:33:40;3.53;;;2.00;;
24102;SDS011;12278;53.058;9.028;2023-08-31T21:37:41;1.90;;;1.60;;
24102;SDS011;12278;53.058;9.028;2023-08-31T21:41:42;3.65;;;2.28;;
24102;SDS011;12278;53.058;9.028;2023-08-31T21:45:42;2.00;;;1.73;;
24102;SDS011;12278;53.058;9.028;2023-08-31T21:49:43;3.00;;;2.03;;
24102;SDS011;12278;53.058;9.028;2023-08-31T21:53:44;2.55;;;2.25;;
24102;SDS011;12278;53.058;9.028;2023-08-31T21:57:44;2.63;;;1.73;;
24102;SDS011;12278;53.058;9.028;2023-08-31T22:01:45;4.25;;;2.42;;
24102;SDS011;12278;53.058;9.028;2023-08-31T22:05:46;3.60;;;2.10;;
24102;SDS011;12278;53.058;9.028;2023-08-31T22:09:46;3.00;;;2.00;;
24102;SDS011;12278;53.058;9.028;2023-08-31T22:13:48;3.00;;;1.92;;
24102;SDS011;12278;53.058;9.028;2023-08-31T22:17:50;3.15;;;2.38;;
24102;SDS011;12278;53.058;9.028;2023-08-31T22:21:52;2.13;;;1.80;;
24102;SDS011;12278;53.058;9.028;2023-08-31T22:25:53;4.72;;;2.13;;
24102;SDS011;12278;53.058;9.028;2023-08-31T22:29:54;2.15;;;1.90;;
24102;SDS011;12278;53.058;9.028;2023-08-31T22:33:55;2.60;;;2.10;;
24102;SDS011;12278;53.058;9.028;2023-08-31T22:37:56;3.53;;;1.60;;
24102;SDS011;12278;53.058;9.028;2023-08-31T22:41:56;4.20;;;1.52;;
24102;SDS011;12278;53.058;9.028;2023-08-31T22:45:57;2.08;;;1.75;;
24102;SDS011;12278;53.058;9.028;2023-08-31T22:49:58;1.90;;;1.77;;
24102;SDS011;12278;53.058;9.028;2023-08-31T22:53:59;2.30;;;2.10;;
24102;SDS011;12278;53.058;9.028;2023-08-31T22:58:00;3.53;;;2.17;;
24102;SDS011;12278;53.058;9.028;2023-08-31T23:02:01;3.00;;;2.20;;
24102;SDS011;12278;53.058;9.028;2023-08-31T23:06:03;4.72;;;2.55;;
24102;SDS011;12278;53.058;9.028;2023-08-31T23:10:04;2.88;;;2.42;;
24102;SDS011;12278;53.058;9.028;2023-08-31T23:14:05;4.68;;;2.15;;
24102;SDS011;12278;53.058;9.028;2023-08-31T23:18:06;4.47;;;2.53;;
24102;SDS011;12278;53.058;9.028;2023-08-31T23:22:07;4.65;;;2.60;;
24102;SDS011;12278;53.058;9.028;2023-08-31T23:26:07;4.43;;;2.63;;
24102;SDS011;12278;53.058;9.028;2023-08-31T23:30:08;4.28;;;2.60;;
24102;SDS011;12278;53.058;9.028;2023-08-31T23:34:09;2.63;;;2.17;;
24102;SDS011;12278;53.058;9.028;2023-08-31T23:38:10;2.88;;;2.38;;
24102;SDS011;12278;53.058;9.028;2023-08-31T23:42:10;4.47;;;2.58;;
24102;SDS011;12278;53.058;9.028;2023-08-31T23:46:11;4.35;;;2.47;;
24102;SDS011;12278;53.058;9.028;2023-08-31T23:50:12;5.53;;;2.85;;
24102;SDS011;12278;53.058;9.028;2023-08-31T23:54:12;4.15;;;2.55;;
24102;SDS011;12278;53.058;9.028;2023-08-31T23:58:13;4.38;;;2.33;;
